Time;durP1;ratioP1;P1;durP2;ratioP2;P2;SDS_P1;SDS_P2;PMS_P1;PMS_P2;Temp;Humidity;BMP_temperature;BMP_pressure;BME280_temperature;BME280_humidity;BME280_pressure;Samples;Min_cycle;Max_cycle;Signal;HPM_P1;HPM_P2
2022/10/04 00:02:10;;;;;;;;;;;12.20;62.90;;;7.77;100.00;96139.09;5027554;28;20359;-52
2022/10/04 00:05:17;;;;;;;;;;;12.20;62.90;;;7.72;100.00;96139.03;5028811;28;19920;-55
2022/10/04 00:07:55;;;;;;;;;;;12.10;63.00;;;7.70;100.00;96144.53;5013958;28;19909;-56
2022/10/04 00:10:35;;;;;;;;;;;12.10;63.10;;;7.69;100.00;96148.25;5032180;28;19946;-52
2022/10/04 00:13:25;;;;;;;;;;;12.10;63.10;;;7.68;100.00;96159.06;5023285;28;19912;-52
2022/10/04 00:15:51;;;;;;;;;;;12.10;63.20;;;7.70;100.00;96160.44;5017657;28;19919;-54
2022/10/04 00:18:46;;;;;;;;;;;12.10;63.30;;;7.65;100.00;96153.19;5032933;28;19923;-52
2022/10/04 00:21:13;;;;;;;;;;;12.00;63.30;;;7.59;100.00;96148.81;5050912;28;20390;-50
2022/10/04 00:23:45;;;;;;;;;;;12.00;63.30;;;7.56;100.00;96146.63;5030355;28;19913;-55
2022/10/04 00:26:31;;;;;;;;;;;12.00;63.30;;;7.54;100.00;96155.84;5043063;28;19917;-56
2022/10/04 00:29:17;;;;;;;;;;;12.00;63.30;;;7.49;100.00;96161.88;5030190;28;19927;-57
2022/10/04 00:32:11;;;;;;;;;;;11.90;63.30;;;7.40;100.00;96163.25;5031372;28;19993;-56
2022/10/04 00:34:51;;;;;;;;;;;11.90;63.20;;;7.31;99.70;96159.31;5030592;28;20588;-55
2022/10/04 00:37:22;;;;;;;;;;;11.80;63.20;;;7.24;99.48;96156.78;5021967;28;19965;-52
2022/10/04 00:40:10;;;;;;;;;;;11.80;63.20;;;7.16;100.00;96152.59;5023033;28;19912;-56
2022/10/04 00:42:51;;;;;;;;;;;11.70;63.20;;;7.13;100.00;96152.25;5015707;28;19967;-57
2022/10/04 00:45:41;;;;;;;;;;;11.70;63.30;;;7.08;100.00;96146.81;5031478;28;20433;-55
2022/10/04 00:48:48;;;;;;;;;;;11.60;63.30;;;7.00;99.99;96147.19;4990286;28;20360;-54
2022/10/04 00:51:31;;;;;;;;;;;11.60;63.50;;;6.92;100.00;96150.94;5017892;28;19947;-57
2022/10/04 00:54:32;;;;;;;;;;;11.50;64.30;;;6.92;100.00;96153.59;5027764;28;19912;-53
2022/10/04 00:57:10;;;;;;;;;;;11.40;63.70;;;6.94;100.00;96157.63;5007324;28;20348;-57
2022/10/04 01:00:28;;;;;;;;;;;11.40;64.00;;;6.91;100.00;96155.44;5030156;28;19935;-56
2022/10/04 01:03:11;;;;;;;;;;;11.40;64.00;;;6.88;100.00;96155.09;5027051;28;19913;-56
2022/10/04 01:05:44;;;;;;;;;;;11.30;64.00;;;6.87;100.00;96149.00;5029820;28;20007;-56
2022/10/04 01:08:30;;;;;;;;;;;11.30;64.10;;;6.85;100.00;96148.41;5015090;28;19954;-57
2022/10/04 01:11:09;;;;;;;;;;;11.30;64.20;;;6.85;100.00;96145.75;5029756;28;19909;-56
2022/10/04 01:13:39;;;;;;;;;;;11.30;64.30;;;6.81;100.00;96139.31;5022430;28;19947;-55
2022/10/04 01:16:26;;;;;;;;;;;11.30;64.30;;;6.77;100.00;96142.63;5029456;28;19912;-56
2022/10/04 01:18:52;;;;;;;;;;;11.30;64.30;;;6.75;100.00;96142.06;5004756;28;19945;-57
2022/10/04 01:21:18;;;;;;;;;;;11.20;64.30;;;6.71;100.00;96133.75;5029380;28;20015;-57
2022/10/04 01:23:57;;;;;;;;;;;11.20;64.40;;;6.68;100.00;96124.44;5030036;28;19913;-54
2022/10/04 01:26:28;;;;;;;;;;;11.20;64.50;;;6.68;100.00;96129.72;5014075;28;19999;-57
2022/10/04 01:29:15;;;;;;;;;;;11.10;64.40;;;6.68;100.00;96118.34;5030755;28;20383;-56
2022/10/04 01:31:49;;;;;;;;;;;11.10;64.60;;;6.70;100.00;96129.47;5028388;28;19962;-49
2022/10/04 01:34:25;;;;;;;;;;;11.10;64.70;;;6.74;100.00;96120.06;5029707;28;20398;-55
2022/10/04 01:36:59;;;;;;;;;;;11.10;64.80;;;6.76;100.00;96125.13;5022478;28;20016;-50
2022/10/04 01:39:28;;;;;;;;;;;11.10;64.90;;;6.79;100.00;96116.72;5050245;28;19927;-51
2022/10/04 01:42:19;;;;;;;;;;;11.10;65.00;;;6.79;100.00;96117.53;5066333;28;19912;-51
2022/10/04 01:45:02;;;;;;;;;;;11.20;65.10;;;6.82;100.00;96119.72;5012567;28;19912;-53
2022/10/04 01:48:02;;;;;;;;;;;11.20;65.10;;;6.81;100.00;96115.47;5052642;28;19943;-57
2022/10/04 01:50:57;;;;;;;;;;;11.20;65.20;;;6.80;100.00;96110.38;5024641;28;19948;-56
2022/10/04 01:53:28;;;;;;;;;;;11.20;65.10;;;6.84;100.00;96107.06;5068388;28;19908;-50
2022/10/04 01:56:12;;;;;;;;;;;11.20;65.20;;;6.84;100.00;96111.56;5046119;28;19953;-53
2022/10/04 01:58:49;;;;;;;;;;;11.20;65.20;;;6.79;100.00;96114.09;5036334;28;19943;-54
2022/10/04 02:02:07;;;;;;;;;;;11.20;65.10;;;6.77;100.00;96116.13;5041880;28;19908;-54
2022/10/04 02:04:38;;;;;;;;;;;11.20;65.00;;;6.73;100.00;96111.28;5037184;28;20375;-56
2022/10/04 02:07:14;;;;;;;;;;;11.20;65.00;;;6.69;100.00;96106.69;5028683;28;20005;-54
2022/10/04 02:10:01;;;;;;;;;;;11.20;65.00;;;6.62;100.00;96101.50;5039124;28;19912;-52
2022/10/04 02:12:32;;;;;;;;;;;11.10;65.00;;;6.52;100.00;96108.38;5062516;28;19965;-54
2022/10/04 02:15:02;;;;;;;;;;;11.10;64.90;;;6.40;100.00;96109.16;5052714;28;20418;-52
2022/10/04 02:17:39;;;;;;;;;;;11.00;64.80;;;6.32;100.00;96104.16;5035734;28;20384;-56
2022/10/04 02:20:31;;;;;;;;;;;11.00;64.90;;;6.29;100.00;96107.25;5038116;28;19908;-51
2022/10/04 02:23:02;;;;;;;;;;;10.90;64.80;;;6.24;100.00;96109.78;5051706;28;19916;-52
2022/10/04 02:25:38;;;;;;;;;;;10.90;64.90;;;6.18;100.00;96100.91;5057496;28;19931;-57
2022/10/04 02:28:12;;;;;;;;;;;10.80;64.90;;;6.19;100.00;96107.00;5035243;28;19943;-57
2022/10/04 02:33:44;;;;;;;;;;;10.70;65.10;;;6.11;100.00;96105.47;5054856;28;19992;-57
2022/10/04 02:36:23;;;;;;;;;;;10.70;65.20;;;6.05;100.00;96106.38;5030148;28;19912;-55
2022/10/04 02:39:21;;;;;;;;;;;10.60;65.20;;;5.95;100.00;96106.88;5025116;28;19917;-52
2022/10/04 02:42:22;;;;;;;;;;;10.60;65.20;;;5.87;100.00;96101.06;5031993;28;19912;-55
2022/10/04 02:45:15;;;;;;;;;;;10.50;65.10;;;5.83;100.00;96105.16;4985498;28;19919;-54
2022/10/04 02:48:24;;;;;;;;;;;10.50;65.10;;;5.77;100.00;96102.41;5033703;28;19912;-53
2022/10/04 02:50:57;;;;;;;;;;;10.40;65.20;;;5.69;100.00;96097.41;5005259;28;20004;-49
2022/10/04 02:53:45;;;;;;;;;;;10.40;65.20;;;5.63;100.00;96100.91;5030609;28;20510;-49
2022/10/04 02:56:15;;;;;;;;;;;10.30;65.20;;;5.55;100.00;96109.16;5021495;28;19917;-52
2022/10/04 02:58:43;;;;;;;;;;;10.30;65.20;;;5.46;100.00;96102.53;5033081;28;19913;-53
2022/10/04 03:01:57;;;;;;;;;;;10.20;65.20;;;5.37;100.00;96102.00;5020705;28;19909;-51
2022/10/04 03:04:39;;;;;;;;;;;10.20;65.20;;;5.34;100.00;96092.69;5031882;28;19920;-54
2022/10/04 03:07:08;;;;;;;;;;;10.10;65.40;;;5.39;100.00;96089.41;5020473;28;19913;-50
2022/10/04 03:09:40;;;;;;;;;;;10.10;66.30;;;5.41;100.00;96092.63;5030884;28;20011;-54
2022/10/04 03:12:12;;;;;;;;;;;10.00;65.50;;;5.41;100.00;96086.53;5025754;28;19963;-51
2022/10/04 03:14:43;;;;;;;;;;;10.00;65.50;;;5.41;100.00;96087.34;5022348;28;19909;-55
2022/10/04 03:17:14;;;;;;;;;;;10.00;65.60;;;5.41;100.00;96082.03;5031461;28;20011;-53
2022/10/04 03:19:41;;;;;;;;;;;10.00;65.70;;;5.43;100.00;96087.13;5001164;28;19924;-53
2022/10/04 03:22:18;;;;;;;;;;;10.00;65.80;;;5.43;100.00;96090.56;5031430;28;19913;-54
2022/10/04 03:24:52;;;;;;;;;;;10.00;65.90;;;5.42;100.00;96088.97;5022414;28;20344;-55
2022/10/04 03:27:49;;;;;;;;;;;10.00;66.00;;;5.46;100.00;96091.97;5012375;28;19908;-51
2022/10/04 03:30:20;;;;;;;;;;;10.10;66.10;;;5.52;100.00;96089.25;5013095;28;19948;-54
2022/10/04 03:32:52;;;;;;;;;;;10.00;66.10;;;5.63;100.00;96085.06;5015461;28;19917;-54
2022/10/04 03:35:39;;;;;;;;;;;10.10;66.40;;;5.78;100.00;96088.13;5032830;28;20363;-52
2022/10/04 03:38:25;;;;;;;;;;;10.20;66.80;;;5.88;100.00;96084.97;5017547;28;19921;-55
2022/10/04 03:41:01;;;;;;;;;;;10.20;66.70;;;5.95;100.00;96093.66;5031196;28;19909;-55
2022/10/04 03:43:36;;;;;;;;;;;10.30;66.90;;;6.01;100.00;96091.97;5010567;28;19921;-54
2022/10/04 03:46:22;;;;;;;;;;;10.40;66.90;;;6.07;100.00;96095.56;5007901;28;19908;-56
2022/10/04 03:48:52;;;;;;;;;;;10.50;66.90;;;6.10;100.00;96090.63;4997742;28;20353;-52
2022/10/04 03:51:22;;;;;;;;;;;10.50;66.90;;;6.12;100.00;96093.84;4994723;28;19924;-51
2022/10/04 03:53:58;;;;;;;;;;;10.60;66.90;;;6.16;100.00;96100.31;5011018;28;19916;-54
2022/10/04 03:56:36;;;;;;;;;;;10.60;66.80;;;6.20;100.00;96104.13;4995194;28;19915;-50
2022/10/04 03:59:05;;;;;;;;;;;10.60;66.80;;;6.21;100.00;96100.47;4999587;28;19909;-52
2022/10/04 04:01:57;;;;;;;;;;;10.70;66.80;;;6.20;100.00;96106.75;4987408;28;20491;-51
2022/10/04 04:04:42;;;;;;;;;;;10.70;66.80;;;6.21;100.00;96095.16;5008920;28;19931;-54
2022/10/04 04:07:29;;;;;;;;;;;10.70;66.70;;;6.19;100.00;96097.22;5000568;28;19909;-54
2022/10/04 04:10:30;;;;;;;;;;;10.70;66.70;;;6.16;100.00;96102.16;4996410;28;19910;-54
2022/10/04 04:13:02;;;;;;;;;;;10.70;66.70;;;6.12;100.00;96099.16;5004865;28;20447;-53
2022/10/04 04:15:47;;;;;;;;;;;10.70;66.70;;;6.07;100.00;96092.91;5001790;28;19948;-50
2022/10/04 04:18:21;;;;;;;;;;;10.70;66.70;;;6.01;100.00;96100.69;5009402;28;20394;-53
2022/10/04 04:20:51;;;;;;;;;;;10.60;66.60;;;5.99;100.00;96094.03;5008085;28;19923;-53
2022/10/04 04:23:47;;;;;;;;;;;10.60;66.60;;;5.96;100.00;96091.84;4986415;28;19925;-52
2022/10/04 04:26:39;;;;;;;;;;;10.60;66.60;;;5.94;100.00;96091.25;4996613;28;19941;-50
2022/10/04 04:29:25;;;;;;;;;;;10.50;66.60;;;5.92;100.00;96094.09;5010116;28;19915;-50
2022/10/04 04:32:00;;;;;;;;;;;10.50;66.70;;;5.88;100.00;96089.44;4995618;28;19910;-55
2022/10/04 04:34:57;;;;;;;;;;;10.40;66.70;;;5.86;100.00;96088.84;4997054;28;19955;-51
2022/10/04 04:37:23;;;;;;;;;;;10.40;66.70;;;5.84;100.00;96093.59;5005523;28;19921;-51
2022/10/04 04:40:09;;;;;;;;;;;10.40;66.70;;;5.80;100.00;96095.88;5017873;28;19916;-50
2022/10/04 04:42:36;;;;;;;;;;;10.30;66.80;;;5.78;100.00;96093.44;5014450;28;19919;-55
2022/10/04 04:45:24;;;;;;;;;;;10.30;66.80;;;5.75;100.00;96087.78;5030816;28;20049;-54
2022/10/04 04:47:56;;;;;;;;;;;10.30;66.90;;;5.74;100.00;96094.91;5017306;28;20313;-55
2022/10/04 04:50:51;;;;;;;;;;;10.30;67.00;;;5.79;100.00;96094.22;5010525;28;20000;-54
2022/10/04 04:53:28;;;;;;;;;;;10.30;67.10;;;5.84;100.00;96091.75;5011385;28;19974;-53
2022/10/04 04:56:01;;;;;;;;;;;10.40;67.20;;;5.87;100.00;96099.22;5026468;28;20264;-52
2022/10/04 04:58:42;;;;;;;;;;;10.40;67.30;;;5.94;100.00;96099.97;5017968;28;19963;-55
2022/10/04 05:01:35;;;;;;;;;;;10.40;67.40;;;6.02;100.00;96104.16;5020415;28;20347;-53
2022/10/04 05:04:22;;;;;;;;;;;10.50;67.50;;;6.10;100.00;96106.50;5026313;28;19940;-49
2022/10/04 05:07:18;;;;;;;;;;;10.60;67.60;;;6.18;100.00;96105.38;5013026;28;20295;-50
2022/10/04 05:09:44;;;;;;;;;;;10.60;67.60;;;6.23;100.00;96108.16;5030280;28;20383;-53
2022/10/04 05:12:21;;;;;;;;;;;10.70;67.60;;;6.29;100.00;96109.91;5029079;28;19909;-50
2022/10/04 05:14:52;;;;;;;;;;;10.80;67.60;;;6.39;100.00;96114.66;5046825;28;19973;-53
2022/10/04 05:17:32;;;;;;;;;;;10.90;68.40;;;6.46;100.00;96118.84;5011725;28;19947;-52
2022/10/04 05:20:06;;;;;;;;;;;11.00;67.60;;;6.53;100.00;96115.28;5026291;28;19954;-53
2022/10/04 05:22:33;;;;;;;;;;;11.10;67.60;;;6.58;100.00;96110.09;5009348;28;20287;-50
2022/10/04 05:25:08;;;;;;;;;;;11.10;67.50;;;6.62;100.00;96114.75;5011161;28;19963;-52
2022/10/04 05:27:43;;;;;;;;;;;11.20;67.50;;;6.68;100.00;96111.19;5009997;28;19909;-53
2022/10/04 05:31:02;;;;;;;;;;;11.30;67.50;;;6.73;100.00;96113.94;4994369;28;19909;-51
2022/10/04 05:33:52;;;;;;;;;;;11.30;67.40;;;6.80;100.00;96110.38;5010864;28;20298;-48
2022/10/04 05:36:49;;;;;;;;;;;11.40;67.50;;;6.86;100.00;96104.19;5019428;28;20000;-56
2022/10/04 05:39:43;;;;;;;;;;;11.40;67.40;;;6.89;100.00;96101.91;5000335;28;20450;-52
2022/10/04 05:42:28;;;;;;;;;;;11.50;67.50;;;6.95;100.00;96102.81;4998990;28;19917;-55
2022/10/04 05:44:57;;;;;;;;;;;11.60;67.50;;;7.02;100.00;96110.66;5009390;28;20338;-52
2022/10/04 05:47:28;;;;;;;;;;;11.70;67.40;;;7.07;100.00;96113.44;4988157;28;19909;-53
2022/10/04 05:49:58;;;;;;;;;;;11.70;67.40;;;7.13;100.00;96108.03;4979180;28;20773;-55
2022/10/04 05:52:29;;;;;;;;;;;11.80;67.40;;;7.16;100.00;96109.41;5014659;28;19909;-51
2022/10/04 05:55:36;;;;;;;;;;;11.80;67.30;;;7.22;100.00;96105.84;5002367;28;19944;-53
2022/10/04 05:58:26;;;;;;;;;;;11.90;67.30;;;7.28;100.00;96109.41;5001889;28;20014;-52
2022/10/04 06:02:08;;;;;;;;;;;12.00;67.30;;;7.32;100.00;96103.41;5006072;28;20101;-52
2022/10/04 06:05:04;;;;;;;;;;;12.10;67.40;;;7.41;100.00;96115.28;4968297;28;19993;-54
2022/10/04 06:07:57;;;;;;;;;;;12.10;67.30;;;7.47;100.00;96118.06;5002244;28;19975;-54
2022/10/04 06:11:01;;;;;;;;;;;12.20;67.40;;;7.51;100.00;96116.56;4939149;28;22577;-55
2022/10/04 06:14:12;;;;;;;;;;;12.20;67.40;;;7.56;100.00;96124.63;5006743;28;19921;-52
2022/10/04 06:17:24;;;;;;;;;;;12.30;68.10;;;7.63;100.00;96120.81;5012253;28;19921;-51
2022/10/04 06:20:24;;;;;;;;;;;12.40;67.20;;;7.71;100.00;96132.09;5011413;28;19915;-53
2022/10/04 06:23:04;;;;;;;;;;;12.50;67.20;;;7.76;100.00;96134.84;5004063;28;19909;-53
2022/10/04 06:25:50;;;;;;;;;;;12.60;67.20;;;7.78;100.00;96130.94;4993950;28;19912;-55
2022/10/04 06:28:23;;;;;;;;;;;12.60;67.10;;;7.85;100.00;96133.47;5010864;28;19909;-49
2022/10/04 06:31:36;;;;;;;;;;;12.70;67.10;;;7.79;100.00;96151.09;5010758;28;19962;-52
2022/10/04 06:34:24;;;;;;;;;;;12.80;66.90;;;7.87;100.00;96156.06;5012981;28;19916;-55
2022/10/04 06:37:02;;;;;;;;;;;12.80;66.80;;;7.98;100.00;96153.63;5009216;28;20050;-50
2022/10/04 06:40:01;;;;;;;;;;;12.90;66.90;;;8.03;100.00;96154.53;5031936;28;19909;-50
2022/10/04 06:43:07;;;;;;;;;;;13.00;66.90;;;8.08;100.00;96159.13;5047916;28;19924;-53
2022/10/04 06:46:21;;;;;;;;;;;13.10;66.80;;;8.17;100.00;96163.03;5044932;28;19966;-54
2022/10/04 06:49:43;;;;;;;;;;;13.10;66.80;;;8.25;100.00;96172.47;5052196;28;19916;-54
2022/10/04 06:52:14;;;;;;;;;;;13.20;66.80;;;8.23;100.00;96159.44;5028639;28;20407;-53
2022/10/04 06:55:30;;;;;;;;;;;13.30;66.80;;;8.24;100.00;96170.84;5033027;28;19913;-54
2022/10/04 06:58:33;;;;;;;;;;;13.30;66.60;;;8.30;100.00;96170.75;5032209;28;20418;-55
2022/10/04 07:01:33;;;;;;;;;;;13.40;66.50;;;8.32;100.00;96165.19;5014975;28;19915;-53
2022/10/04 07:04:30;;;;;;;;;;;13.40;66.50;;;8.29;100.00;96165.66;5002735;28;19987;-56
2022/10/04 07:07:36;;;;;;;;;;;13.50;66.40;;;8.19;100.00;96170.75;5016584;28;20295;-52
2022/10/04 07:10:33;;;;;;;;;;;13.50;66.30;;;8.18;100.00;96171.78;5017063;28;20004;-50
2022/10/04 07:13:46;;;;;;;;;;;13.60;66.30;;;8.21;100.00;96168.66;5033500;28;19931;-52
2022/10/04 07:17:01;;;;;;;;;;;13.50;66.20;;;8.25;100.00;96165.31;5032345;28;19916;-52
2022/10/04 07:19:47;;;;;;;;;;;13.60;66.30;;;8.22;100.00;96159.69;5043033;28;19962;-54
2022/10/04 07:22:27;;;;;;;;;;;13.50;66.30;;;8.27;100.00;96157.09;5031049;28;19970;-53
2022/10/04 07:25:40;;;;;;;;;;;13.50;67.10;;;8.10;100.00;96162.34;5039774;28;20263;-52
2022/10/04 07:31:35;;;;;;;;;;;13.60;67.00;;;8.35;100.00;96170.81;5017855;28;19910;-51
2022/10/04 07:34:27;;;;;;;;;;;13.70;66.30;;;8.37;100.00;96178.56;5014697;28;20015;-53
2022/10/04 07:36:59;;;;;;;;;;;13.80;66.30;;;8.47;100.00;96175.34;5013819;28;20336;-53
2022/10/04 07:39:32;;;;;;;;;;;13.90;66.30;;;8.65;100.00;96172.50;5021221;28;19915;-53
2022/10/04 07:42:25;;;;;;;;;;;14.00;66.30;;;8.74;100.00;96181.69;5032364;28;20405;-55
2022/10/04 07:45:32;;;;;;;;;;;14.10;66.20;;;8.85;100.00;96185.31;5046424;28;19958;-50
2022/10/04 07:48:22;;;;;;;;;;;14.20;66.20;;;9.02;100.00;96188.00;5054180;28;19908;-54
2022/10/04 07:51:45;;;;;;;;;;;14.40;66.20;;;9.19;100.00;96196.81;5052132;28;19950;-52
2022/10/04 07:54:55;;;;;;;;;;;14.50;66.10;;;9.35;100.00;96199.72;4999969;28;19928;-50
2022/10/04 07:57:51;;;;;;;;;;;14.80;66.00;;;9.53;100.00;96198.66;5035903;28;19915;-51
2022/10/04 08:00:29;;;;;;;;;;;15.00;65.90;;;9.70;100.00;96204.78;5069072;28;19920;-55
2022/10/04 08:03:30;;;;;;;;;;;15.20;65.90;;;9.85;100.00;96207.66;5050782;28;20485;-50
2022/10/04 08:06:19;;;;;;;;;;;15.30;65.70;;;9.93;100.00;96203.78;5053447;28;19915;-54
2022/10/04 08:09:56;;;;;;;;;;;15.40;65.60;;;10.04;100.00;96210.06;5032451;28;19995;-50
2022/10/04 08:12:50;;;;;;;;;;;15.60;65.50;;;10.13;100.00;96214.72;5004291;28;20503;-55
2022/10/04 08:15:36;;;;;;;;;;;15.60;65.30;;;9.93;100.00;96220.56;5016132;28;20088;-57
2022/10/04 08:18:26;;;;;;;;;;;15.70;65.10;;;10.09;100.00;96212.78;5031130;28;19908;-53
2022/10/04 08:21:08;;;;;;;;;;;15.80;64.90;;;10.23;100.00;96210.56;5034319;28;19948;-54
2022/10/04 08:24:17;;;;;;;;;;;16.00;64.90;;;10.39;100.00;96220.41;5030610;28;19920;-52
2022/10/04 08:27:25;;;;;;;;;;;16.10;64.80;;;10.49;100.00;96220.50;5025422;28;19908;-50
2022/10/04 08:30:15;;;;;;;;;;;16.20;64.70;;;10.65;100.00;96216.16;5014910;28;19909;-51
2022/10/04 08:33:05;;;;;;;;;;;16.30;64.60;;;10.74;100.00;96209.34;5030534;28;19912;-54
2022/10/04 08:35:59;;;;;;;;;;;16.50;64.60;;;10.84;100.00;96213.97;5031820;28;19959;-49
2022/10/04 08:38:55;;;;;;;;;;;16.60;64.40;;;10.91;99.36;96216.47;5010419;28;19920;-48
2022/10/04 08:42:12;;;;;;;;;;;16.70;64.30;;;10.98;98.04;96207.19;4998303;28;20368;-48
2022/10/04 08:45:21;;;;;;;;;;;16.90;64.10;;;11.11;98.01;96206.00;4974605;28;19968;-50
2022/10/04 08:48:37;;;;;;;;;;;16.90;63.90;;;11.22;97.64;96202.38;4992132;28;19913;-53
2022/10/04 08:51:53;;;;;;;;;;;17.10;64.00;;;11.31;97.35;96197.34;4999451;28;20386;-46
2022/10/04 08:54:45;;;;;;;;;;;17.10;64.00;;;11.36;96.19;96197.41;5005322;28;19994;-49
2022/10/04 08:57:29;;;;;;;;;;;17.20;63.90;;;11.39;94.66;96194.25;5010855;28;20437;-51
2022/10/04 09:00:34;;;;;;;;;;;17.30;63.80;;;11.55;94.45;96195.97;5010257;28;20012;-53
2022/10/04 09:03:47;;;;;;;;;;;17.50;63.80;;;11.60;93.32;96197.06;5006394;28;19920;-47
2022/10/04 09:07:27;;;;;;;;;;;17.70;63.60;;;11.84;93.64;96206.31;5009381;28;19986;-47
2022/10/04 09:10:17;;;;;;;;;;;18.00;63.20;;;12.10;92.56;96204.63;4929140;28;20405;-49
2022/10/04 09:13:29;;;;;;;;;;;18.30;63.10;;;11.97;89.89;96208.56;4936184;28;20352;-48
2022/10/04 09:16:08;;;;;;;;;;;18.40;62.80;;;12.06;89.25;96205.41;4957209;28;19917;-49
2022/10/04 09:18:51;;;;;;;;;;;18.50;62.40;;;12.17;89.51;96201.72;4989477;28;20295;-47
2022/10/04 09:22:12;;;;;;;;;;;18.60;62.20;;;12.44;87.82;96191.72;4991514;28;19913;-51
2022/10/04 09:25:07;;;;;;;;;;;18.80;62.10;;;12.77;88.17;96202.25;4991500;28;19917;-49
2022/10/04 09:27:48;;;;;;;;;;;19.20;61.90;;;13.12;85.52;96204.97;4997332;28;20334;-46
2022/10/04 09:30:42;;;;;;;;;;;19.60;61.70;;;13.40;81.13;96213.63;4995373;28;19913;-47
2022/10/04 09:34:04;;;;;;;;;;;20.00;61.50;;;13.24;81.13;96202.06;5007197;28;19909;-50
2022/10/04 09:37:01;;;;;;;;;;;20.20;60.80;;;13.55;81.07;96213.63;5004865;28;19953;-50
2022/10/04 09:39:51;;;;;;;;;;;20.40;60.50;;;13.71;80.37;96213.63;5036440;28;19920;-50
2022/10/04 09:42:21;;;;;;;;;;;20.60;60.30;;;13.74;77.26;96200.50;5043610;28;19916;-49
2022/10/04 09:45:05;;;;;;;;;;;20.90;60.00;;;14.13;78.01;96199.88;5030124;28;20386;-48
2022/10/04 09:48:13;;;;;;;;;;;21.20;59.70;;;14.71;77.57;96207.50;5030467;28;20330;-48
2022/10/04 09:51:31;;;;;;;;;;;21.70;59.50;;;15.26;73.34;96208.25;5036362;28;20002;-48
2022/10/04 09:54:22;;;;;;;;;;;22.20;59.10;;;15.68;71.88;96201.53;5029563;28;20007;-50
2022/10/04 09:56:58;;;;;;;;;;;22.70;58.80;;;16.13;70.48;96207.56;5038384;28;20287;-46
2022/10/04 10:00:01;;;;;;;;;;;23.10;58.40;;;16.60;66.23;96195.19;5036940;28;19909;-48
2022/10/04 10:03:17;;;;;;;;;;;23.70;57.80;;;16.73;65.97;96197.19;5031393;28;20385;-47
2022/10/04 10:06:27;;;;;;;;;;;24.30;57.10;;;16.54;65.71;96199.84;5034505;28;19917;-53
2022/10/04 10:16:40;;;;;;;;;;;24.50;55.90;;;17.12;64.12;96201.56;5033021;28;19958;-49
2022/10/04 10:19:50;;;;;;;;;;;24.80;55.60;;;17.40;61.98;96186.34;5042875;28;20425;-48
2022/10/04 10:22:49;;;;;;;;;;;25.00;55.10;;;17.23;64.64;96199.50;5029005;28;19939;-54
2022/10/04 10:25:58;;;;;;;;;;;25.40;54.70;;;17.45;64.64;96204.28;5049232;28;20378;-48
2022/10/04 10:28:42;;;;;;;;;;;25.80;54.30;;;18.01;59.27;96209.59;5049091;28;19940;-49
2022/10/04 10:31:55;;;;;;;;;;;26.50;53.90;;;18.26;58.32;96205.63;5038706;28;19953;-50
2022/10/04 10:35:14;;;;;;;;;;;26.70;53.30;;;18.14;57.10;96204.50;5022701;28;19951;-49
2022/10/04 10:38:15;;;;;;;;;;;26.80;52.90;;;18.14;58.56;96197.22;5033234;28;20393;-47
2022/10/04 10:40:58;;;;;;;;;;;26.70;52.60;;;18.50;57.29;96199.25;5022507;28;19912;-47
2022/10/04 10:44:25;;;;;;;;;;;26.90;52.40;;;18.75;56.45;96191.78;5047442;28;19955;-51
2022/10/04 10:47:30;;;;;;;;;;;26.80;52.30;;;18.59;55.53;96192.06;5001068;28;20019;-49
2022/10/04 10:50:33;;;;;;;;;;;26.50;52.20;;;18.73;56.59;96197.47;5040998;28;19916;-47
2022/10/04 10:53:30;;;;;;;;;;;26.30;52.10;;;18.66;55.48;96188.97;5029649;28;19916;-48
2022/10/04 10:56:33;;;;;;;;;;;26.50;52.00;;;18.91;57.65;96193.06;5037398;28;19915;-50
2022/10/04 10:59:51;;;;;;;;;;;26.70;51.70;;;19.11;55.46;96187.19;5036948;28;20003;-50
2022/10/04 11:03:04;;;;;;;;;;;26.90;51.40;;;19.23;54.91;96188.56;5047995;28;19951;-50
2022/10/04 11:05:39;;;;;;;;;;;27.00;51.30;;;19.14;54.42;96193.91;5053064;28;19941;-48
2022/10/04 11:08:49;;;;;;;;;;;27.30;50.80;;;19.12;54.27;96199.63;5053131;28;20279;-48
2022/10/04 11:11:55;;;;;;;;;;;27.10;50.80;;;18.94;54.26;96192.44;5035345;28;19909;-47
2022/10/04 11:15:09;;;;;;;;;;;26.90;50.70;;;19.07;53.80;96188.91;5039139;28;19909;-54
2022/10/04 11:17:46;;;;;;;;;;;27.30;50.40;;;19.23;53.70;96191.28;5039067;28;19931;-47
2022/10/04 11:20:48;;;;;;;;;;;27.70;49.90;;;19.83;52.65;96182.84;5049423;28;19908;-48
2022/10/04 11:23:36;;;;;;;;;;;28.20;49.60;;;20.28;54.06;96188.19;5042289;28;19920;-47
2022/10/04 11:26:40;;;;;;;;;;;28.40;49.50;;;20.54;48.75;96180.97;5049586;28;19916;-48
2022/10/04 11:29:25;;;;;;;;;;;28.80;49.20;;;21.02;50.14;96176.63;5031898;28;20058;-48
2022/10/04 11:32:39;;;;;;;;;;;29.30;48.70;;;21.36;48.36;96180.50;5029428;28;19908;-51
2022/10/04 11:35:35;;;;;;;;;;;29.90;48.50;;;21.29;49.47;96175.53;5052539;28;19915;-50
2022/10/04 11:39:00;;;;;;;;;;;30.30;47.90;;;21.22;49.80;96180.63;5044978;28;19917;-50
2022/10/04 11:41:53;;;;;;;;;;;30.30;47.70;;;21.25;48.58;96177.28;5031505;28;20011;-47
2022/10/04 11:44:51;;;;;;;;;;;30.60;47.30;;;21.61;48.57;96179.69;5029572;28;19963;-51
2022/10/04 11:47:24;;;;;;;;;;;30.80;47.00;;;21.87;46.77;96178.84;5049186;28;19916;-49
2022/10/04 11:50:19;;;;;;;;;;;31.00;46.90;;;22.08;44.77;96170.81;5014371;28;19916;-50
2022/10/04 11:53:02;;;;;;;;;;;31.10;46.80;;;21.81;45.33;96167.38;5040382;28;20633;-50
2022/10/04 11:56:20;;;;;;;;;;;31.10;46.50;;;21.64;46.43;96167.41;5047758;28;20011;-49
2022/10/04 11:59:39;;;;;;;;;;;30.90;46.10;;;22.14;45.98;96162.16;5044666;28;19912;-49
2022/10/04 12:02:49;;;;;;;;;;;31.20;45.90;;;22.48;44.10;96151.53;5049828;28;19963;-49
2022/10/04 12:05:45;;;;;;;;;;;31.40;45.90;;;22.35;45.37;96161.50;5025195;28;20429;-51
2022/10/04 12:09:03;;;;;;;;;;;31.70;45.70;;;22.51;44.29;96154.38;5036722;28;20014;-49
2022/10/04 12:14:56;;;;;;;;;;;32.10;45.20;;;23.00;44.29;96137.66;5032747;28;20271;-48
2022/10/04 12:17:51;;;;;;;;;;;32.40;45.00;;;23.00;44.28;96134.94;5032557;28;20359;-49
2022/10/04 12:20:55;;;;;;;;;;;32.50;44.70;;;23.23;42.79;96133.50;5039475;28;19955;-48
2022/10/04 12:24:04;;;;;;;;;;;32.70;44.40;;;23.43;41.90;96125.66;5041645;28;20386;-48
2022/10/04 12:27:14;;;;;;;;;;;32.80;44.00;;;23.26;42.55;96124.69;5032401;28;19963;-50
2022/10/04 12:30:45;;;;;;;;;;;33.00;43.80;;;23.53;42.56;96127.94;5037030;28;19912;-50
2022/10/04 12:33:53;;;;;;;;;;;33.10;43.40;;;23.72;42.37;96124.75;5031987;28;20023;-48
2022/10/04 12:37:12;;;;;;;;;;;33.30;43.30;;;23.85;41.50;96115.50;5039966;28;20058;-52
2022/10/04 12:40:08;;;;;;;;;;;33.40;43.00;;;23.79;41.21;96127.72;5041828;28;19921;-48
2022/10/04 12:43:08;;;;;;;;;;;33.60;42.80;;;23.91;41.32;96126.94;5034434;28;20649;-48
2022/10/04 12:46:11;;;;;;;;;;;33.70;42.00;;;23.80;41.04;96129.31;5041157;28;19999;-52
2022/10/04 12:49:04;;;;;;;;;;;33.80;41.40;;;23.64;42.34;96125.63;5051150;28;19919;-52
2022/10/04 12:52:26;;;;;;;;;;;33.80;41.10;;;23.51;42.22;96122.84;5071143;28;19994;-53
2022/10/04 12:55:38;;;;;;;;;;;33.50;41.60;;;23.62;41.91;96114.28;5046815;28;19909;-51
2022/10/04 12:58:54;;;;;;;;;;;33.50;41.30;;;23.45;42.32;96109.81;5044671;28;19909;-50
2022/10/04 13:01:53;;;;;;;;;;;33.70;41.10;;;23.52;42.68;96104.63;5053669;28;20011;-54
2022/10/04 13:04:45;;;;;;;;;;;33.80;40.60;;;23.85;42.21;96103.81;5065543;28;19919;-48
2022/10/04 13:07:47;;;;;;;;;;;33.90;40.50;;;24.04;40.58;96111.44;5022323;28;28075;-53
2022/10/04 13:10:50;;;;;;;;;;;34.00;40.40;;;23.68;42.84;96112.94;5031763;28;19937;-52
2022/10/04 13:13:49;;;;;;;;;;;34.00;40.30;;;23.69;42.67;96117.25;5065572;28;20011;-54
2022/10/04 13:16:41;;;;;;;;;;;34.00;40.10;;;23.84;41.11;96104.94;5070325;28;19908;-52
2022/10/04 13:19:57;;;;;;;;;;;34.00;40.00;;;23.89;42.72;96115.63;5062122;28;19916;-51
2022/10/04 13:23:11;;;;;;;;;;;34.00;39.70;;;23.97;41.08;96114.72;5055238;28;19908;-55
2022/10/04 13:26:43;;;;;;;;;;;34.10;39.60;;;23.78;41.27;96118.78;5019076;28;19924;-52